createdAt,value
2022-11-06T00:00:52.296Z,18.42
2022-11-06T00:03:18.801Z,22.52
2022-11-06T00:06:03.594Z,15.13
2022-11-06T00:08:33.071Z,14.55
2022-11-06T00:11:00.124Z,13.33
2022-11-06T00:13:27.671Z,14.40
2022-11-06T00:15:54.729Z,15.57
2022-11-06T00:18:21.349Z,12.57
2022-11-06T00:20:47.937Z,18.45
2022-11-06T00:23:14.363Z,16.93
2022-11-06T00:25:41.505Z,15.45
2022-11-06T00:28:08.043Z,13.27
2022-11-06T00:30:34.455Z,15.88
2022-11-06T00:33:00.852Z,15.25
2022-11-06T00:35:28.515Z,14.50
2022-11-06T00:37:56.004Z,18.65
2022-11-06T00:40:22.413Z,14.43
2022-11-06T00:42:53.962Z,16.80
2022-11-06T00:45:20.498Z,17.33
2022-11-06T00:47:46.967Z,19.97
2022-11-06T00:50:13.384Z,16.70
2022-11-06T00:52:39.802Z,20.80
2022-11-06T00:55:06.427Z,23.92
2022-11-06T00:57:32.898Z,24.88
2022-11-06T00:59:59.292Z,23.00
2022-11-06T01:02:25.807Z,27.55
2022-11-06T01:04:52.337Z,31.80
2022-11-06T01:07:18.803Z,31.92
2022-11-06T01:09:45.263Z,34.78
2022-11-06T01:12:13.729Z,30.80
2022-11-06T01:14:41.934Z,29.80
2022-11-06T01:17:08.610Z,33.85
2022-11-06T01:19:35.055Z,26.25
2022-11-06T01:22:01.544Z,30.23
2022-11-06T01:24:29.052Z,26.80
2022-11-06T01:29:43.062Z,29.48
2022-11-06T01:32:10.314Z,24.73
2022-11-06T01:34:36.953Z,29.77
2022-11-06T01:37:03.507Z,30.57
2022-11-06T01:39:31.247Z,26.42
2022-11-06T01:41:57.887Z,30.83
2022-11-06T01:44:33.392Z,28.70
2022-11-06T01:47:01.509Z,26.98
2022-11-06T01:49:31.029Z,25.10
2022-11-06T01:52:02.577Z,25.08
2022-11-06T01:54:30.973Z,26.98
2022-11-06T01:57:00.005Z,26.75
2022-11-06T01:59:30.289Z,28.42
2022-11-06T02:01:56.865Z,25.27
2022-11-06T02:04:26.519Z,26.88
2022-11-06T02:06:53.328Z,29.25
2022-11-06T02:09:19.983Z,28.25
2022-11-06T02:12:22.350Z,25.27
2022-11-06T02:15:11.841Z,26.43
2022-11-06T02:17:57.046Z,30.23
2022-11-06T02:20:39.902Z,27.42
2022-11-06T02:23:27.858Z,23.70
2022-11-06T02:26:02.343Z,25.02
2022-11-06T02:28:35.993Z,24.90
2022-11-06T02:31:08.159Z,25.90
2022-11-06T02:33:40.203Z,28.63
2022-11-06T02:36:11.551Z,27.27
2022-11-06T02:38:42.248Z,31.23
2022-11-06T02:41:18.528Z,24.53
2022-11-06T02:43:51.047Z,30.10
2022-11-06T02:46:22.726Z,26.50
2022-11-06T02:48:53.325Z,24.20
2022-11-06T02:51:25.298Z,23.98
2022-11-06T02:53:53.416Z,24.70
2022-11-06T02:56:24.927Z,28.20
2022-11-06T02:59:01.996Z,30.17
2022-11-06T03:01:37.103Z,26.63
2022-11-06T03:04:08.201Z,23.77
2022-11-06T03:06:46.783Z,26.80
2022-11-06T03:09:17.703Z,31.65
2022-11-06T03:11:51.402Z,31.15
2022-11-06T03:14:29.446Z,31.17
2022-11-06T03:17:31.406Z,31.58
2022-11-06T03:20:31.259Z,31.47
2022-11-06T03:23:09.448Z,28.63
2022-11-06T03:25:46.124Z,27.80
2022-11-06T03:28:34.890Z,26.05
2022-11-06T03:31:05.239Z,28.50
2022-11-06T03:33:38.228Z,24.87
2022-11-06T03:36:12.131Z,24.45
2022-11-06T03:38:43.427Z,29.17
2022-11-06T03:41:24.902Z,25.98
2022-11-06T03:43:56.160Z,27.92
2022-11-06T03:46:26.045Z,27.43
2022-11-06T03:49:02.807Z,26.85
2022-11-06T03:51:38.101Z,25.70
2022-11-06T03:54:27.582Z,24.52
2022-11-06T03:57:03.874Z,23.65
2022-11-06T03:59:35.838Z,24.77
2022-11-06T04:02:03.082Z,18.73
2022-11-06T04:04:41.781Z,25.15
2022-11-06T04:07:14.782Z,24.38
2022-11-06T04:10:05.062Z,23.10
2022-11-06T04:12:46.313Z,21.87
2022-11-06T04:15:16.623Z,28.95
2022-11-06T04:17:43.002Z,23.60
2022-11-06T04:20:35.109Z,33.88
2022-11-06T04:23:14.285Z,30.45
2022-11-06T04:26:14.678Z,26.77
2022-11-06T04:28:57.638Z,27.25
2022-11-06T04:31:37.415Z,30.83
2022-11-06T04:34:54.919Z,26.95
2022-11-06T04:37:30.264Z,23.60
2022-11-06T04:39:59.588Z,24.27
2022-11-06T04:42:29.112Z,21.98
2022-11-06T04:45:02.224Z,23.90
2022-11-06T04:47:29.463Z,22.30
2022-11-06T04:49:59.553Z,20.63
2022-11-06T04:52:28.274Z,25.80
2022-11-06T04:54:58.933Z,23.23
2022-11-06T04:57:26.223Z,21.60
2022-11-06T04:59:53.136Z,21.15
2022-11-06T05:02:19.638Z,19.67
2022-11-06T05:04:46.200Z,18.57
2022-11-06T05:07:13.543Z,20.30
2022-11-06T05:09:40.461Z,21.80
2022-11-06T05:12:07.029Z,20.33
2022-11-06T05:14:33.443Z,20.17
2022-11-06T05:17:00.114Z,17.23
2022-11-06T05:19:26.491Z,23.67
2022-11-06T05:22:11.404Z,20.10
2022-11-06T05:24:37.804Z,19.98
2022-11-06T05:27:04.535Z,17.55
2022-11-06T05:29:31.022Z,20.23
2022-11-06T05:31:57.428Z,16.50
2022-11-06T05:34:23.964Z,17.73
2022-11-06T05:36:50.344Z,17.50
2022-11-06T05:39:16.840Z,18.55
2022-11-06T05:41:43.239Z,14.67
2022-11-06T05:44:09.882Z,12.13
2022-11-06T05:46:48.214Z,14.38
2022-11-06T05:49:15.405Z,11.32
2022-11-06T05:51:41.799Z,13.27
2022-11-06T05:54:08.174Z,14.00
2022-11-06T05:56:34.546Z,14.70
2022-11-06T05:59:01.016Z,16.92
2022-11-06T06:01:27.471Z,14.32
2022-11-06T06:03:53.894Z,15.98
2022-11-06T06:06:21.103Z,21.33
2022-11-06T06:08:47.601Z,26.40
2022-11-06T06:11:14.017Z,46.60
2022-11-06T06:13:40.459Z,35.67
2022-11-06T06:16:07.070Z,41.88
2022-11-06T06:18:33.551Z,34.37
2022-11-06T06:21:00.301Z,53.33
2022-11-06T06:23:26.868Z,50.50
2022-11-06T06:25:53.261Z,63.38
2022-11-06T06:28:19.807Z,57.88
2022-11-06T06:30:46.348Z,58.47
2022-11-06T06:33:12.774Z,50.35
2022-11-06T06:35:39.189Z,58.08
2022-11-06T06:38:05.666Z,55.63
2022-11-06T06:40:32.246Z,48.97
2022-11-06T06:42:59.018Z,55.67
2022-11-06T06:45:26.226Z,56.00
2022-11-06T06:47:52.887Z,66.38
2022-11-06T06:50:19.902Z,56.00
2022-11-06T06:52:47.312Z,57.72
2022-11-06T06:55:13.970Z,55.37
2022-11-06T06:57:40.506Z,42.15
2022-11-06T07:00:07.675Z,48.47
2022-11-06T07:02:34.120Z,41.45
2022-11-06T07:05:00.607Z,41.35
2022-11-06T07:07:26.967Z,38.17
2022-11-06T07:09:53.374Z,38.70
2022-11-06T07:12:19.829Z,32.80
2022-11-06T07:14:46.378Z,34.72
2022-11-06T07:17:12.900Z,33.53
2022-11-06T07:19:39.351Z,26.33
2022-11-06T07:22:05.727Z,26.90
2022-11-06T07:24:32.230Z,27.30
2022-11-06T07:26:58.597Z,27.23
2022-11-06T07:29:24.997Z,27.42
2022-11-06T07:31:51.401Z,28.03
2022-11-06T07:34:17.976Z,26.13
2022-11-06T07:36:44.369Z,23.20
2022-11-06T07:39:10.756Z,28.80
2022-11-06T07:41:37.661Z,22.77
2022-11-06T07:44:05.060Z,20.63
2022-11-06T07:46:31.735Z,21.58
2022-11-06T07:48:58.143Z,22.95
2022-11-06T07:51:24.621Z,22.50
2022-11-06T07:53:51.060Z,22.80
2022-11-06T07:56:17.595Z,21.80
2022-11-06T07:58:44.062Z,22.08
2022-11-06T08:01:18.910Z,31.23
2022-11-06T08:03:45.958Z,26.35
2022-11-06T08:06:12.629Z,20.95
2022-11-06T08:08:39.157Z,22.57
2022-11-06T08:11:07.451Z,19.35
2022-11-06T08:13:34.990Z,20.52
2022-11-06T08:16:06.517Z,18.85
2022-11-06T08:18:33.899Z,16.55
2022-11-06T08:21:00.722Z,18.83
2022-11-06T08:23:27.979Z,17.23
2022-11-06T08:26:00.123Z,15.57
2022-11-06T08:28:27.235Z,16.70
2022-11-06T08:30:54.212Z,15.55
2022-11-06T08:33:21.937Z,16.83
2022-11-06T08:35:48.764Z,16.10
2022-11-06T08:38:15.954Z,15.85
2022-11-06T08:40:42.753Z,16.60
2022-11-06T08:43:10.775Z,16.58
2022-11-06T08:45:38.721Z,14.50
2022-11-06T08:48:05.822Z,14.20
2022-11-06T08:50:33.198Z,15.30
2022-11-06T08:53:03.949Z,14.07
2022-11-06T08:55:31.398Z,13.75
2022-11-06T08:57:57.811Z,13.03
2022-11-06T09:00:25.173Z,11.60
2022-11-06T09:02:51.808Z,15.15
2022-11-06T09:05:18.287Z,13.35
2022-11-06T09:07:44.717Z,13.65
2022-11-06T09:10:11.119Z,14.20
2022-11-06T09:12:37.770Z,12.50
2022-11-06T09:15:04.598Z,13.75
2022-11-06T09:17:31.125Z,15.18
2022-11-06T09:19:57.651Z,14.70
2022-11-06T09:22:24.285Z,14.07
2022-11-06T09:25:03.140Z,11.77
2022-11-06T09:27:31.002Z,11.38
2022-11-06T09:29:57.563Z,12.50
2022-11-06T09:32:24.658Z,15.90
2022-11-06T09:34:51.518Z,12.63
2022-11-06T09:37:18.081Z,13.57
2022-11-06T09:39:44.635Z,11.80
2022-11-06T09:42:42.295Z,14.05
2022-11-06T09:45:17.545Z,12.52
2022-11-06T09:47:52.480Z,11.57
2022-11-06T09:50:24.971Z,11.88
2022-11-06T09:53:01.702Z,11.98
2022-11-06T09:55:38.351Z,13.52
2022-11-06T09:58:28.309Z,12.93
2022-11-06T10:00:55.092Z,12.97
2022-11-06T10:03:43.676Z,11.70
2022-11-06T10:06:10.274Z,12.90
2022-11-06T10:08:36.709Z,10.70
2022-11-06T10:11:03.115Z,10.98
2022-11-06T10:13:50.000Z,10.33
2022-11-06T10:16:45.529Z,9.57
2022-11-06T10:19:29.878Z,11.63
2022-11-06T10:22:10.401Z,11.95
2022-11-06T10:25:14.224Z,9.45
2022-11-06T10:27:45.461Z,10.20
2022-11-06T10:30:15.034Z,9.50
2022-11-06T10:32:53.906Z,11.45
2022-11-06T10:35:41.117Z,11.50
2022-11-06T10:38:14.007Z,10.55
2022-11-06T10:40:44.565Z,9.87
2022-11-06T10:43:42.076Z,8.32
2022-11-06T10:46:08.470Z,9.18
2022-11-06T10:48:41.807Z,10.65
2022-11-06T10:51:51.664Z,11.18
2022-11-06T10:54:24.189Z,8.23
2022-11-06T10:57:12.110Z,9.43
2022-11-06T10:59:38.824Z,10.55
2022-11-06T11:02:23.048Z,8.73
2022-11-06T11:04:51.886Z,8.13
2022-11-06T11:07:22.637Z,8.13
2022-11-06T11:09:50.688Z,8.25
2022-11-06T11:12:28.845Z,7.43
2022-11-06T11:15:26.068Z,6.78
2022-11-06T11:18:18.969Z,7.20
2022-11-06T11:20:48.056Z,7.87
2022-11-06T11:23:22.277Z,5.20
2022-11-06T11:25:54.889Z,5.65
2022-11-06T11:28:33.345Z,6.40
2022-11-06T11:31:05.875Z,6.20
2022-11-06T11:33:33.366Z,7.30
2022-11-06T11:36:00.447Z,8.05
2022-11-06T11:38:26.897Z,5.75
2022-11-06T11:41:06.833Z,6.43
2022-11-06T11:43:33.615Z,6.85
2022-11-06T11:46:18.974Z,6.17
2022-11-06T11:48:52.269Z,7.85
2022-11-06T11:51:43.631Z,7.68
2022-11-06T11:54:13.094Z,8.15
2022-11-06T11:57:08.615Z,6.55
2022-11-06T11:59:44.327Z,7.33
2022-11-06T12:02:29.463Z,9.95
2022-11-06T12:05:02.195Z,6.50
2022-11-06T12:07:45.955Z,8.55
2022-11-06T12:10:34.785Z,6.57
2022-11-06T12:13:07.844Z,7.53
2022-11-06T12:15:40.320Z,7.10
2022-11-06T12:18:12.454Z,7.45
2022-11-06T12:20:47.420Z,11.73
2022-11-06T12:23:20.641Z,9.48
2022-11-06T12:25:59.670Z,8.13
2022-11-06T12:28:30.237Z,10.55
2022-11-06T12:31:11.218Z,8.30
2022-11-06T12:34:05.143Z,9.20
2022-11-06T12:36:34.689Z,8.85
2022-11-06T12:39:11.583Z,8.40
2022-11-06T12:41:45.871Z,9.18
2022-11-06T12:44:16.074Z,10.50
2022-11-06T12:46:59.300Z,9.05
2022-11-06T12:49:38.846Z,10.60
2022-11-06T12:52:38.540Z,9.60
2022-11-06T12:55:16.269Z,8.60
2022-11-06T12:57:51.939Z,8.10
2022-11-06T13:00:26.016Z,9.05
2022-11-06T13:03:16.623Z,9.20
2022-11-06T13:05:52.975Z,11.20
2022-11-06T13:08:26.229Z,9.02
2022-11-06T13:11:13.314Z,8.60
2022-11-06T13:13:51.839Z,8.57
2022-11-06T13:16:24.234Z,7.75
2022-11-06T13:19:02.240Z,7.57
2022-11-06T13:21:51.329Z,10.05
2022-11-06T13:24:53.856Z,9.25
2022-11-06T13:27:39.805Z,9.18
2022-11-06T13:30:15.915Z,10.00
2022-11-06T13:32:52.598Z,6.97
2022-11-06T13:35:22.206Z,7.90
2022-11-06T13:37:51.107Z,7.60
2022-11-06T13:40:23.477Z,9.45
2022-11-06T13:43:13.459Z,7.78
2022-11-06T13:45:49.155Z,8.60
2022-11-06T13:48:46.595Z,14.23
2022-11-06T13:51:41.926Z,8.98
2022-11-06T13:54:25.566Z,6.55
2022-11-06T13:56:54.801Z,8.07
2022-11-06T13:59:24.321Z,7.73
2022-11-06T14:02:12.055Z,6.53
2022-11-06T14:04:38.531Z,6.53
2022-11-06T14:07:08.063Z,8.05
2022-11-06T14:09:36.125Z,7.93
2022-11-06T14:12:11.213Z,6.33
2022-11-06T14:14:40.596Z,8.05
2022-11-06T14:17:20.867Z,7.28
2022-11-06T14:19:51.111Z,7.00
2022-11-06T14:22:38.468Z,8.30
2022-11-06T14:25:29.567Z,5.37
2022-11-06T14:27:55.939Z,14.25
2022-11-06T14:30:57.699Z,12.40
2022-11-06T14:33:51.615Z,6.15
2022-11-06T14:36:23.957Z,5.35
2022-11-06T14:38:51.700Z,6.27
2022-11-06T14:41:37.641Z,5.40
2022-11-06T14:44:07.086Z,6.00
2022-11-06T14:46:33.831Z,6.38
2022-11-06T14:49:32.263Z,7.15
2022-11-06T14:52:01.724Z,4.73
2022-11-06T14:54:28.936Z,6.97
2022-11-06T14:56:55.832Z,6.68
2022-11-06T14:59:33.079Z,5.68
2022-11-06T15:02:25.485Z,4.90
2022-11-06T15:05:03.204Z,6.20
2022-11-06T15:08:03.999Z,5.80
2022-11-06T15:10:44.672Z,6.50
2022-11-06T15:13:17.429Z,7.75
2022-11-06T15:15:48.079Z,5.72
2022-11-06T15:18:22.933Z,6.17
2022-11-06T15:20:59.533Z,5.85
2022-11-06T15:23:50.507Z,6.10
2022-11-06T15:26:24.950Z,5.93
2022-11-06T15:29:22.093Z,8.00
2022-11-06T15:31:52.384Z,6.43
2022-11-06T15:34:31.968Z,6.90
2022-11-06T15:37:21.981Z,8.98
2022-11-06T15:39:57.520Z,7.30
2022-11-06T15:42:33.765Z,6.57
2022-11-06T15:45:12.871Z,8.90
2022-11-06T15:47:39.381Z,7.72
2022-11-06T15:50:16.433Z,8.75
2022-11-06T15:52:44.247Z,8.98
2022-11-06T15:55:23.272Z,7.53
2022-11-06T15:57:50.490Z,6.67
2022-11-06T16:00:20.862Z,6.82
2022-11-06T16:02:56.615Z,6.90
2022-11-06T16:05:25.004Z,7.30
2022-11-06T16:07:51.628Z,6.93
2022-11-06T16:10:21.360Z,6.30
2022-11-06T16:12:50.170Z,6.10
2022-11-06T16:15:44.411Z,8.90
2022-11-06T16:18:25.991Z,6.20
2022-11-06T16:20:56.776Z,8.73
2022-11-06T16:23:38.659Z,16.57
2022-11-06T16:26:11.635Z,10.15
2022-11-06T16:28:43.391Z,6.30
2022-11-06T16:31:20.531Z,7.50
2022-11-06T16:34:01.483Z,8.07
2022-11-06T16:36:30.474Z,5.33
2022-11-06T16:39:35.331Z,9.00
2022-11-06T16:42:14.277Z,6.50
2022-11-06T16:44:40.843Z,6.93
2022-11-06T16:47:10.049Z,6.43
2022-11-06T16:49:39.294Z,6.33
2022-11-06T16:52:27.705Z,6.90
2022-11-06T16:55:05.330Z,10.10
2022-11-06T16:57:55.343Z,7.75
2022-11-06T17:00:21.753Z,11.88
2022-11-06T17:02:55.100Z,9.70
2022-11-06T17:05:25.277Z,9.35
2022-11-06T17:08:29.239Z,6.53
2022-11-06T17:11:14.136Z,7.20
2022-11-06T17:13:42.923Z,7.38
2022-11-06T17:16:15.624Z,6.67
2022-11-06T17:18:42.187Z,4.88
2022-11-06T17:21:20.797Z,6.15
2022-11-06T17:23:48.546Z,6.30
2022-11-06T17:26:28.306Z,4.90
2022-11-06T17:28:59.387Z,4.87
2022-11-06T17:31:26.632Z,6.60
2022-11-06T17:33:53.581Z,5.97
2022-11-06T17:36:28.770Z,6.10
2022-11-06T17:38:56.649Z,5.47
2022-11-06T17:41:30.324Z,6.50
2022-11-06T17:44:10.926Z,6.13
2022-11-06T17:46:43.602Z,5.43
2022-11-06T17:49:15.981Z,5.97
2022-11-06T17:51:50.667Z,5.45
2022-11-06T17:54:26.142Z,8.20
2022-11-06T17:56:54.061Z,8.20
2022-11-06T17:59:21.662Z,7.10
2022-11-06T18:01:50.421Z,7.30
2022-11-06T18:04:18.358Z,7.93
2022-11-06T18:06:46.047Z,6.90
2022-11-06T18:09:14.611Z,8.20
2022-11-06T18:11:42.648Z,8.52
2022-11-06T18:14:10.570Z,6.38
2022-11-06T18:16:43.740Z,10.57
2022-11-06T18:19:14.379Z,9.03
2022-11-06T18:21:40.969Z,11.32
2022-11-06T18:24:08.283Z,9.73
2022-11-06T18:26:37.174Z,7.03
2022-11-06T18:29:05.532Z,9.55
2022-11-06T18:31:32.076Z,8.17
2022-11-06T18:33:58.639Z,10.23
2022-11-06T18:36:25.357Z,10.48
2022-11-06T18:38:51.955Z,8.63
2022-11-06T18:41:20.898Z,10.32
2022-11-06T18:43:47.746Z,9.73
2022-11-06T18:46:18.944Z,8.80
2022-11-06T18:48:45.497Z,12.32
2022-11-06T18:51:33.370Z,10.43
2022-11-06T18:54:02.408Z,10.25
2022-11-06T18:56:29.780Z,8.37
2022-11-06T18:58:56.508Z,10.63
2022-11-06T19:01:23.370Z,10.57
2022-11-06T19:03:50.144Z,9.43
2022-11-06T19:06:18.701Z,10.63
2022-11-06T19:08:45.701Z,10.77
2022-11-06T19:11:15.242Z,9.50
2022-11-06T19:13:47.561Z,11.00
2022-11-06T19:16:15.175Z,9.75
2022-11-06T19:18:42.252Z,9.10
2022-11-06T19:21:11.027Z,9.37
2022-11-06T19:23:40.099Z,9.18
2022-11-06T19:29:00.546Z,10.55
2022-11-06T19:31:29.421Z,10.93
2022-11-06T19:33:57.052Z,13.90
2022-11-06T19:36:25.674Z,11.48
2022-11-06T19:38:52.478Z,10.95
2022-11-06T19:41:19.149Z,9.85
2022-11-06T19:43:45.835Z,10.60
2022-11-06T19:46:12.551Z,8.97
2022-11-06T19:48:39.645Z,11.65
2022-11-06T19:51:10.655Z,10.55
2022-11-06T19:53:38.313Z,12.50
2022-11-06T19:56:06.383Z,12.25
2022-11-06T19:58:33.123Z,9.30
2022-11-06T20:01:01.211Z,10.88
2022-11-06T20:03:27.891Z,8.52
2022-11-06T20:05:54.638Z,9.27
2022-11-06T20:08:21.150Z,10.77
2022-11-06T20:10:47.695Z,9.63
2022-11-06T20:13:14.493Z,7.70
2022-11-06T20:15:41.407Z,10.48
2022-11-06T20:18:07.956Z,8.10
2022-11-06T20:20:36.362Z,8.73
2022-11-06T20:23:03.326Z,8.93
2022-11-06T20:25:30.073Z,6.53
2022-11-06T20:27:57.030Z,8.52
2022-11-06T20:30:23.557Z,7.15
2022-11-06T20:32:50.133Z,7.88
2022-11-06T20:35:18.194Z,8.80
2022-11-06T20:37:45.538Z,9.70
2022-11-06T20:40:12.479Z,8.73
2022-11-06T20:42:39.314Z,7.82
2022-11-06T20:45:07.011Z,8.35
2022-11-06T20:47:33.703Z,9.00
2022-11-06T20:50:00.154Z,8.57
2022-11-06T20:52:26.737Z,10.30
2022-11-06T20:54:53.271Z,9.68
2022-11-06T20:57:19.750Z,9.43
2022-11-06T20:59:46.233Z,7.77
2022-11-06T21:02:12.877Z,9.25
2022-11-06T21:04:39.395Z,8.00
2022-11-06T21:07:05.870Z,9.90
2022-11-06T21:09:32.746Z,8.50
2022-11-06T21:11:59.224Z,9.03
2022-11-06T21:14:25.698Z,7.30
2022-11-06T21:16:53.201Z,7.82
2022-11-06T21:19:19.615Z,7.68
2022-11-06T21:21:46.168Z,8.32
2022-11-06T21:24:12.601Z,7.23
2022-11-06T21:26:39.789Z,9.98
2022-11-06T21:29:10.460Z,8.18
2022-11-06T21:31:42.720Z,9.07
2022-11-06T21:34:14.968Z,9.65
2022-11-06T21:36:41.400Z,8.10
2022-11-06T21:39:11.626Z,8.27
2022-11-06T21:41:38.605Z,8.00
2022-11-06T21:44:06.773Z,9.50
2022-11-06T21:46:33.315Z,8.43
2022-11-06T21:48:59.805Z,8.80
2022-11-06T21:51:29.759Z,7.03
2022-11-06T21:54:15.829Z,8.63
2022-11-06T21:56:43.010Z,5.72
2022-11-06T21:59:12.150Z,6.88
2022-11-06T22:01:39.826Z,9.20
2022-11-06T22:04:07.223Z,6.50
2022-11-06T22:06:33.790Z,6.88
2022-11-06T22:09:02.529Z,6.15
2022-11-06T22:11:30.438Z,7.10
2022-11-06T22:13:59.127Z,8.07
2022-11-06T22:16:28.653Z,5.97
2022-11-06T22:18:55.547Z,6.10
2022-11-06T22:21:27.106Z,7.57
2022-11-06T22:23:53.858Z,7.38
2022-11-06T22:26:31.862Z,6.57
2022-11-06T22:29:05.291Z,7.28
2022-11-06T22:31:31.803Z,6.45
2022-11-06T22:33:58.696Z,6.55
2022-11-06T22:36:25.899Z,7.20
2022-11-06T22:38:52.680Z,6.67
2022-11-06T22:41:22.573Z,6.35
2022-11-06T22:43:49.381Z,7.50
2022-11-06T22:46:19.256Z,8.05
2022-11-06T22:48:46.036Z,5.32
2022-11-06T22:51:15.241Z,7.43
2022-11-06T22:53:41.859Z,7.45
2022-11-06T22:56:09.007Z,7.75
2022-11-06T22:58:35.501Z,8.38
2022-11-06T23:01:02.129Z,6.15
2022-11-06T23:03:30.010Z,7.93
2022-11-06T23:05:58.143Z,14.57
2022-11-06T23:08:26.707Z,8.35
2022-11-06T23:10:55.264Z,7.72
2022-11-06T23:13:22.878Z,6.60
2022-11-06T23:15:49.865Z,8.80
2022-11-06T23:18:16.624Z,7.07
2022-11-06T23:20:43.612Z,5.80
2022-11-06T23:23:10.069Z,9.80
2022-11-06T23:25:36.436Z,6.05
2022-11-06T23:28:03.004Z,7.93
2022-11-06T23:30:32.869Z,6.20
2022-11-06T23:32:59.303Z,6.95
2022-11-06T23:35:32.213Z,6.95
2022-11-06T23:37:59.456Z,8.93
2022-11-06T23:40:26.216Z,6.50
2022-11-06T23:42:54.687Z,6.25
2022-11-06T23:45:39.810Z,8.65
2022-11-06T23:48:13.220Z,6.05
2022-11-06T23:50:41.233Z,5.47
2022-11-06T23:53:07.675Z,5.80
2022-11-06T23:55:34.122Z,6.28
2022-11-06T23:58:00.627Z,8.57
